Time,TemperatureF,DewpointF,PressureIn,WindDirection,WindDirectionDegrees,WindSpeedMPH,WindSpeedGustMPH,Humidity,HourlyPrecipIn,Conditions,Clouds,dailyrainin,SoftwareType,DateUTC
2013-06-04 00:03:00,69.0,60.0,30.01,NNW,344,0.0,3.0,72,0.00,,,0.18,,2013-06-04 04:03:00,
2013-06-04 00:13:00,69.0,60.0,30.01,NNW,344,0.0,3.0,72,0.00,,,0.18,,2013-06-04 04:13:00,
2013-06-04 00:23:00,69.0,60.0,30.01,NNW,344,0.0,4.0,72,0.00,,,0.18,,2013-06-04 04:23:00,
2013-06-04 00:33:00,68.0,59.0,30.01,NNW,344,0.0,1.0,73,0.00,,,0.18,,2013-06-04 04:33:00,
2013-06-04 00:42:00,68.0,59.0,30.01,NNW,344,0.0,1.0,73,0.00,,,0.18,,2013-06-04 04:42:00,
2013-06-04 00:53:00,68.0,60.0,30.02,NNW,344,1.0,2.0,75,0.00,,,0.18,,2013-06-04 04:53:00,
2013-06-04 01:02:00,67.0,60.0,30.02,South,170,2.0,5.0,78,0.00,,,0.18,,2013-06-04 05:02:00,
2013-06-04 01:12:00,67.0,60.0,30.02,South,170,2.0,5.0,78,0.00,,,0.18,,2013-06-04 05:12:00,
2013-06-04 01:22:00,67.0,59.0,30.02,South,171,0.0,2.0,76,0.00,,,0.18,,2013-06-04 05:22:00,
2013-06-04 01:32:00,67.0,60.0,30.02,South,171,1.0,2.0,78,0.00,,,0.18,,2013-06-04 05:32:00,
2013-06-04 01:42:00,67.0,60.0,30.02,South,171,1.0,2.0,78,0.00,,,0.18,,2013-06-04 05:42:00,
2013-06-04 01:52:00,66.0,59.0,30.02,South,171,0.0,2.0,79,0.00,,,0.18,,2013-06-04 05:52:00,
2013-06-04 02:02:00,66.0,60.0,30.02,East,88,0.0,2.0,80,0.00,,,0.18,,2013-06-04 06:02:00,
2013-06-04 02:12:00,66.0,60.0,30.02,East,88,0.0,2.0,80,0.00,,,0.18,,2013-06-04 06:12:00,
2013-06-04 02:22:00,65.0,59.0,30.02,East,88,0.0,1.0,81,0.00,,,0.18,,2013-06-04 06:22:00,
2013-06-04 02:32:00,65.0,60.0,30.02,West,271,1.0,6.0,83,0.00,,,0.18,,2013-06-04 06:32:00,
2013-06-04 02:42:00,65.0,60.0,30.02,West,271,1.0,6.0,83,0.00,,,0.18,,2013-06-04 06:42:00,
2013-06-04 02:52:00,64.0,59.0,30.02,WNW,282,0.0,3.0,83,0.00,,,0.18,,2013-06-04 06:52:00,
2013-06-04 03:02:00,64.0,59.0,30.02,WSW,243,1.0,3.0,84,0.00,,,0.18,,2013-06-04 07:02:00,
2013-06-04 03:12:00,64.0,59.0,30.02,WSW,243,1.0,3.0,84,0.00,,,0.18,,2013-06-04 07:12:00,
2013-06-04 03:22:00,63.0,58.0,30.02,WSW,242,0.0,3.0,84,0.00,,,0.18,,2013-06-04 07:22:00,
2013-06-04 03:32:00,63.0,58.0,30.02,SSW,196,0.0,3.0,85,0.00,,,0.18,,2013-06-04 07:32:00,
2013-06-04 03:42:00,63.0,58.0,30.02,SSW,196,0.0,3.0,85,0.00,,,0.18,,2013-06-04 07:42:00,
2013-06-04 03:52:00,63.0,58.0,30.02,SSW,210,0.0,3.0,84,0.00,,,0.16,,2013-06-04 07:52:00,
2013-06-04 04:02:00,62.0,57.0,30.02,SSW,211,0.0,3.0,84,0.00,,,0.16,,2013-06-04 08:02:00,
2013-06-04 04:12:00,62.0,57.0,30.02,SSW,211,0.0,3.0,84,0.00,,,0.16,,2013-06-04 08:12:00,
2013-06-04 04:22:00,62.0,57.0,30.02,SSW,208,0.0,2.0,85,0.00,,,0.16,,2013-06-04 08:22:00,
2013-06-04 04:32:00,62.0,58.0,30.03,SSW,202,0.0,3.0,86,0.00,,,0.16,,2013-06-04 08:32:00,
2013-06-04 04:42:00,62.0,58.0,30.03,SSW,202,0.0,3.0,86,0.00,,,0.16,,2013-06-04 08:42:00,
2013-06-04 04:52:00,62.0,58.0,30.02,SSW,202,1.0,3.0,86,0.00,,,0.15,,2013-06-04 08:52:00,
2013-06-04 05:02:00,61.0,57.0,30.03,SSW,194,1.0,2.0,86,0.00,,,0.15,,2013-06-04 09:02:00,
2013-06-04 05:12:00,61.0,57.0,30.03,SSW,194,1.0,2.0,86,0.00,,,0.15,,2013-06-04 09:12:00,
2013-06-04 05:22:00,61.0,56.0,30.03,WSW,254,2.0,6.0,85,0.00,,,0.15,,2013-06-04 09:22:00,
2013-06-04 05:33:00,61.0,57.0,30.04,WSW,242,2.0,4.0,86,0.00,,,0.15,,2013-06-04 09:33:00,
2013-06-04 05:43:00,61.0,57.0,30.04,WSW,242,2.0,4.0,86,0.00,,,0.15,,2013-06-04 09:43:00,
2013-06-04 05:53:00,61.0,57.0,30.05,West,274,2.0,5.0,86,0.00,,,0.14,,2013-06-04 09:53:00,
2013-06-04 06:02:00,61.0,57.0,30.05,West,274,0.0,3.0,86,0.00,,,0.14,,2013-06-04 10:02:00,
2013-06-04 06:12:00,61.0,57.0,30.05,West,274,0.0,3.0,86,0.00,,,0.14,,2013-06-04 10:12:00,
2013-06-04 06:23:00,61.0,57.0,30.06,West,277,0.0,2.0,86,0.00,,,0.14,,2013-06-04 10:23:00,
2013-06-04 06:33:00,60.0,56.0,30.06,West,277,2.0,4.0,86,0.00,,,0.14,,2013-06-04 10:33:00,
2013-06-04 06:42:00,60.0,56.0,30.06,West,277,2.0,4.0,86,0.00,,,0.14,,2013-06-04 10:42:00,
2013-06-04 06:53:00,61.0,57.0,30.07,West,278,0.0,2.0,86,0.00,,,0.13,,2013-06-04 10:53:00,
2013-06-04 07:02:00,61.0,57.0,30.07,West,271,0.0,3.0,87,0.00,,,0.13,,2013-06-04 11:02:00,
2013-06-04 07:12:00,61.0,57.0,30.07,West,271,0.0,3.0,87,0.00,,,0.13,,2013-06-04 11:12:00,
2013-06-04 07:22:00,61.0,57.0,30.08,SSW,208,2.0,5.0,86,0.00,,,0.13,,2013-06-04 11:22:00,
2013-06-04 07:32:00,61.0,57.0,30.09,SW,221,2.0,5.0,86,0.00,,,0.13,,2013-06-04 11:32:00,
2013-06-04 07:42:00,61.0,57.0,30.09,SW,221,2.0,5.0,86,0.00,,,0.13,,2013-06-04 11:42:00,
2013-06-04 07:52:00,62.0,57.0,30.09,SW,223,1.0,4.0,85,0.01,,,0.13,,2013-06-04 11:52:00,
2013-06-04 08:02:00,64.0,58.0,30.09,SW,227,0.0,3.0,82,0.01,,,0.13,,2013-06-04 12:02:00,
2013-06-04 08:12:00,64.0,58.0,30.09,SW,227,0.0,3.0,82,0.01,,,0.13,,2013-06-04 12:12:00,
2013-06-04 08:22:00,66.0,59.0,30.10,WNW,296,1.0,2.0,77,0.01,,,0.13,,2013-06-04 12:22:00,
2013-06-04 08:32:00,69.0,59.0,30.10,WNW,298,0.0,4.0,71,0.01,,,0.13,,2013-06-04 12:32:00,
2013-06-04 08:42:00,69.0,59.0,30.10,WNW,298,0.0,4.0,71,0.01,,,0.13,,2013-06-04 12:42:00,
2013-06-04 08:53:00,70.0,59.0,30.10,NW,311,1.0,4.0,69,0.00,,,0.13,,2013-06-04 12:53:00,
2013-06-04 09:03:00,72.0,60.0,30.11,WNW,297,4.0,9.0,66,0.00,,,0.13,,2013-06-04 13:03:00,
2013-06-04 09:12:00,72.0,60.0,30.11,WNW,297,4.0,9.0,66,0.00,,,0.13,,2013-06-04 13:12:00,
2013-06-04 09:22:00,70.0,59.0,30.11,NW,311,6.0,9.0,67,0.00,,,0.13,,2013-06-04 13:22:00,
2013-06-04 09:32:00,72.0,59.0,30.11,NNE,23,3.0,7.0,64,0.00,,,0.13,,2013-06-04 13:32:00,
2013-06-04 09:42:00,72.0,59.0,30.11,NNE,23,3.0,7.0,64,0.00,,,0.13,,2013-06-04 13:42:00,
2013-06-04 09:52:00,74.0,60.0,30.11,NE,35,5.0,8.0,61,0.00,,,0.12,,2013-06-04 13:52:00,
2013-06-04 10:02:00,74.0,59.0,30.12,NNW,344,5.0,12.0,60,0.00,,,0.12,,2013-06-04 14:02:00,
2013-06-04 10:12:00,74.0,59.0,30.12,NNW,344,5.0,12.0,60,0.00,,,0.12,,2013-06-04 14:12:00,
2013-06-04 10:22:00,72.0,59.0,30.11,North,11,4.0,11.0,63,0.00,,,0.12,,2013-06-04 14:22:00,
2013-06-04 10:32:00,74.0,58.0,30.11,North,350,2.0,9.0,58,0.00,,,0.12,,2013-06-04 14:32:00,
2013-06-04 10:42:00,74.0,58.0,30.11,North,350,2.0,9.0,58,0.00,,,0.12,,2013-06-04 14:42:00,
2013-06-04 10:52:00,73.0,57.0,30.11,NE,38,5.0,11.0,58,0.00,,,0.11,,2013-06-04 14:52:00,
2013-06-04 11:02:00,76.0,58.0,30.11,North,5,2.0,9.0,53,0.00,,,0.11,,2013-06-04 15:02:00,
2013-06-04 11:12:00,76.0,58.0,30.11,North,5,2.0,9.0,53,0.00,,,0.11,,2013-06-04 15:12:00,
2013-06-04 11:22:00,77.0,57.0,30.11,NNE,19,2.0,9.0,51,0.00,,,0.11,,2013-06-04 15:22:00,
2013-06-04 11:33:00,76.0,56.0,30.11,NNE,32,5.0,10.0,50,0.00,,,0.11,,2013-06-04 15:33:00,
2013-06-04 11:42:00,76.0,56.0,30.11,NNE,32,5.0,10.0,50,0.00,,,0.11,,2013-06-04 15:42:00,
2013-06-04 11:53:00,78.0,55.0,30.11,NNE,16,3.0,10.0,45,0.00,,,0.10,,2013-06-04 15:53:00,
2013-06-04 12:03:00,78.0,54.0,30.11,NNE,21,4.0,10.0,43,0.00,,,0.10,,2013-06-04 16:03:00,
2013-06-04 12:13:00,78.0,54.0,30.11,NNE,21,4.0,10.0,43,0.00,,,0.10,,2013-06-04 16:13:00,
2013-06-04 12:23:00,79.0,55.0,30.11,NNW,346,2.0,9.0,44,0.00,,,0.10,,2013-06-04 16:23:00,
2013-06-04 12:33:00,78.0,54.0,30.11,NW,313,3.0,9.0,43,0.00,,,0.10,,2013-06-04 16:33:00,
2013-06-04 12:42:00,78.0,54.0,30.11,NW,313,3.0,9.0,43,0.00,,,0.10,,2013-06-04 16:42:00,
2013-06-04 12:53:00,81.0,55.0,30.11,NW,309,1.0,4.0,41,0.00,,,0.09,,2013-06-04 16:53:00,
2013-06-04 13:03:00,78.0,54.0,30.11,WNW,300,1.0,9.0,43,0.00,,,0.09,,2013-06-04 17:03:00,
2013-06-04 13:12:00,78.0,54.0,30.11,WNW,300,1.0,9.0,43,0.00,,,0.09,,2013-06-04 17:12:00,
2013-06-04 13:23:00,82.0,55.0,30.10,SW,235,1.0,4.0,39,0.00,,,0.09,,2013-06-04 17:23:00,
2013-06-04 13:33:00,78.0,54.0,30.09,ENE,74,4.0,7.0,44,0.00,,,0.09,,2013-06-04 17:33:00,
2013-06-04 13:42:00,78.0,54.0,30.09,ENE,74,4.0,7.0,44,0.00,,,0.09,,2013-06-04 17:42:00,
2013-06-04 13:52:00,78.0,54.0,30.10,South,180,1.0,6.0,44,0.00,,,0.09,,2013-06-04 17:52:00,
2013-06-04 14:02:00,78.0,54.0,30.10,North,360,4.0,6.0,44,0.00,,,0.09,,2013-06-04 18:02:00,
2013-06-04 14:12:00,78.0,54.0,30.10,North,360,4.0,6.0,44,0.00,,,0.09,,2013-06-04 18:12:00,
2013-06-04 14:22:00,77.0,54.0,30.10,South,171,2.0,8.0,45,0.00,,,0.09,,2013-06-04 18:22:00,
2013-06-04 14:32:00,79.0,55.0,30.10,South,170,3.0,8.0,44,0.00,,,0.09,,2013-06-04 18:32:00,
2013-06-04 14:42:00,79.0,55.0,30.10,South,170,3.0,8.0,44,0.00,,,0.09,,2013-06-04 18:42:00,
2013-06-04 14:53:00,80.0,54.0,30.09,SE,128,8.0,12.0,41,0.00,,,0.07,,2013-06-04 18:53:00,
2013-06-04 15:02:00,77.0,56.0,30.09,ESE,117,6.0,10.0,49,0.00,,,0.07,,2013-06-04 19:02:00,
2013-06-04 15:12:00,77.0,56.0,30.09,ESE,117,6.0,10.0,49,0.00,,,0.07,,2013-06-04 19:12:00,
2013-06-04 15:22:00,79.0,56.0,30.09,SE,138,7.0,12.0,46,0.00,,,0.07,,2013-06-04 19:22:00,
2013-06-04 15:32:00,78.0,59.0,30.09,South,174,8.0,14.0,52,0.00,,,0.07,,2013-06-04 19:32:00,
2013-06-04 15:42:00,78.0,59.0,30.09,South,174,8.0,14.0,52,0.00,,,0.07,,2013-06-04 19:42:00,
2013-06-04 15:52:00,78.0,60.0,30.09,SE,142,7.0,17.0,54,0.00,,,0.05,,2013-06-04 19:52:00,
2013-06-04 16:03:00,78.0,61.0,30.09,SE,142,5.0,14.0,55,0.00,,,0.05,,2013-06-04 20:03:00,
2013-06-04 16:12:00,78.0,61.0,30.09,SE,142,5.0,14.0,55,0.00,,,0.05,,2013-06-04 20:12:00,
2013-06-04 16:22:00,76.0,59.0,30.08,SE,145,4.0,19.0,56,0.00,,,0.05,,2013-06-04 20:22:00,
2013-06-04 16:32:00,77.0,59.0,30.08,SSE,153,8.0,14.0,54,0.00,,,0.05,,2013-06-04 20:32:00,
2013-06-04 16:42:00,77.0,59.0,30.08,SSE,153,8.0,14.0,54,0.00,,,0.05,,2013-06-04 20:42:00,
2013-06-04 16:53:00,77.0,59.0,30.07,SSE,161,5.0,12.0,54,0.00,,,0.04,,2013-06-04 20:53:00,
2013-06-04 17:02:00,78.0,60.0,30.08,SSE,157,5.0,12.0,54,0.00,,,0.04,,2013-06-04 21:02:00,
2013-06-04 17:12:00,78.0,60.0,30.08,SSE,157,5.0,12.0,54,0.00,,,0.04,,2013-06-04 21:12:00,
2013-06-04 17:22:00,78.0,61.0,30.07,SE,130,6.0,12.0,55,0.00,,,0.04,,2013-06-04 21:22:00,
2013-06-04 17:33:00,77.0,59.0,30.07,SE,136,7.0,14.0,54,0.00,,,0.04,,2013-06-04 21:33:00,
2013-06-04 17:42:00,77.0,59.0,30.07,SE,136,7.0,14.0,54,0.00,,,0.04,,2013-06-04 21:42:00,
2013-06-04 17:53:00,77.0,60.0,30.07,ESE,106,5.0,15.0,55,0.00,,,0.03,,2013-06-04 21:53:00,
2013-06-04 18:02:00,78.0,59.0,30.06,South,183,9.0,13.0,53,0.00,,,0.03,,2013-06-04 22:02:00,
2013-06-04 18:13:00,78.0,59.0,30.06,South,183,9.0,13.0,53,0.00,,,0.03,,2013-06-04 22:13:00,
2013-06-04 18:22:00,77.0,63.0,30.07,SE,124,9.0,16.0,61,0.00,,,0.03,,2013-06-04 22:22:00,
2013-06-04 18:32:00,77.0,63.0,30.07,ESE,123,9.0,13.0,63,0.00,,,0.03,,2013-06-04 22:32:00,
2013-06-04 18:42:00,77.0,63.0,30.07,ESE,123,9.0,13.0,63,0.00,,,0.03,,2013-06-04 22:42:00,
2013-06-04 18:52:00,76.0,62.0,30.07,SSE,167,6.0,13.0,63,0.00,,,0.03,,2013-06-04 22:52:00,
2013-06-04 19:02:00,76.0,63.0,30.07,SE,136,10.0,15.0,65,0.00,,,0.03,,2013-06-04 23:02:00,
2013-06-04 19:12:00,76.0,63.0,30.07,SE,136,10.0,15.0,65,0.00,,,0.03,,2013-06-04 23:12:00,
2013-06-04 19:22:00,75.0,63.0,30.07,SE,132,6.0,15.0,66,0.00,,,0.03,,2013-06-04 23:22:00,
2013-06-04 19:32:00,75.0,63.0,30.07,SE,133,6.0,11.0,67,0.00,,,0.03,,2013-06-04 23:32:00,
2013-06-04 19:42:00,75.0,63.0,30.07,SE,133,6.0,11.0,67,0.00,,,0.03,,2013-06-04 23:42:00,
2013-06-04 19:52:00,75.0,63.0,30.07,SE,132,10.0,15.0,67,0.00,,,0.02,,2013-06-04 23:52:00,
2013-06-04 20:02:00,75.0,63.0,30.08,SSE,165,5.0,8.0,67,0.00,,,0.02,,2013-06-05 00:02:00,
2013-06-04 20:12:00,75.0,63.0,30.08,SSE,165,5.0,8.0,67,0.00,,,0.02,,2013-06-05 00:12:00,
2013-06-04 20:22:00,74.0,63.0,30.09,SE,146,2.0,9.0,68,0.00,,,0.02,,2013-06-05 00:22:00,
2013-06-04 20:33:00,74.0,63.0,30.09,SE,144,5.0,9.0,68,0.00,,,0.02,,2013-06-05 00:33:00,
2013-06-04 20:42:00,74.0,63.0,30.09,SE,144,5.0,9.0,68,0.00,,,0.02,,2013-06-05 00:42:00,
2013-06-04 20:52:00,74.0,62.0,30.10,SSE,157,5.0,10.0,67,0.00,,,0.02,,2013-06-05 00:52:00,
2013-06-04 21:02:00,73.0,62.0,30.10,ESE,123,2.0,9.0,69,0.00,,,0.02,,2013-06-05 01:02:00,
2013-06-04 21:12:00,73.0,62.0,30.10,ESE,123,2.0,9.0,69,0.00,,,0.02,,2013-06-05 01:12:00,
2013-06-04 21:22:00,73.0,63.0,30.11,SSE,150,4.0,7.0,70,0.00,,,0.02,,2013-06-05 01:22:00,
2013-06-04 21:32:00,73.0,63.0,30.11,ESE,114,1.0,6.0,71,0.00,,,0.02,,2013-06-05 01:32:00,
2013-06-04 21:42:00,73.0,63.0,30.11,ESE,114,1.0,6.0,71,0.00,,,0.02,,2013-06-05 01:42:00,
2013-06-04 21:52:00,72.0,62.0,30.12,SE,132,2.0,6.0,71,0.00,,,0.02,,2013-06-05 01:52:00,
2013-06-04 22:02:00,72.0,63.0,30.12,ESE,113,2.0,4.0,73,0.00,,,0.02,,2013-06-05 02:02:00,
2013-06-04 22:12:00,72.0,63.0,30.12,ESE,113,2.0,4.0,73,0.00,,,0.02,,2013-06-05 02:12:00,
2013-06-04 22:22:00,71.0,62.0,30.13,East,93,1.0,4.0,74,0.00,,,0.02,,2013-06-05 02:22:00,
2013-06-04 22:32:00,71.0,63.0,30.13,East,95,1.0,5.0,75,0.00,,,0.02,,2013-06-05 02:32:00,
2013-06-04 22:42:00,71.0,63.0,30.14,East,98,2.0,4.0,75,0.00,,,0.01,,2013-06-05 02:42:00,
2013-06-04 22:52:00,71.0,63.0,30.14,East,98,2.0,4.0,75,0.00,,,0.01,,2013-06-05 02:52:00,
2013-06-04 23:02:00,71.0,63.0,30.14,East,95,3.0,5.0,75,0.00,,,0.01,,2013-06-05 03:02:00,
2013-06-04 23:12:00,71.0,63.0,30.14,East,95,3.0,5.0,75,0.00,,,0.01,,2013-06-05 03:12:00,
2013-06-04 23:22:00,70.0,62.0,30.14,ESE,103,0.0,4.0,77,0.00,,,0.01,,2013-06-05 03:22:00,
2013-06-04 23:33:00,69.0,62.0,30.14,East,82,0.0,3.0,78,0.00,,,0.01,,2013-06-05 03:33:00,
2013-06-04 23:43:00,69.0,62.0,30.14,East,82,0.0,3.0,78,0.00,,,0.01,,2013-06-05 03:43:00,
2013-06-04 23:53:00,69.0,63.0,30.14,ENE,78,1.0,3.0,80,0.00,,,0.01,,2013-06-05 03:53:00,